createdAt,value
2023-04-04T00:00:58.630Z,58.24
2023-04-04T00:03:26.848Z,58.45
2023-04-04T00:05:55.065Z,58.28
2023-04-04T00:08:23.027Z,58.61
2023-04-04T00:10:51.226Z,58.49
2023-04-04T00:13:19.355Z,58.77
2023-04-04T00:15:47.356Z,58.70
2023-04-04T00:18:15.653Z,58.41
2023-04-04T00:20:43.772Z,58.63
2023-04-04T00:23:11.846Z,58.66
2023-04-04T00:25:39.913Z,58.64
2023-04-04T00:28:08.228Z,59.02
2023-04-04T00:30:37.025Z,58.89
2023-04-04T00:33:06.974Z,58.70
2023-04-04T00:35:35.133Z,59.11
2023-04-04T00:38:03.347Z,59.37
2023-04-04T00:40:31.625Z,59.29
2023-04-04T00:43:00.795Z,59.67
2023-04-04T00:45:29.011Z,59.17
2023-04-04T00:47:58.789Z,59.41
2023-04-04T00:50:27.323Z,59.03
2023-04-04T00:52:56.515Z,59.97
2023-04-04T00:55:25.982Z,60.48
2023-04-04T00:57:54.604Z,60.65
2023-04-04T01:00:22.973Z,60.46
2023-04-04T01:02:53.803Z,60.79
2023-04-04T01:05:22.294Z,60.74
2023-04-04T01:07:50.852Z,61.11
2023-04-04T01:10:19.225Z,60.63
2023-04-04T01:12:47.831Z,60.66
2023-04-04T01:15:16.796Z,61.24
2023-04-04T01:17:45.916Z,61.61
2023-04-04T01:20:23.343Z,61.58
2023-04-04T01:22:56.973Z,61.61
2023-04-04T01:25:30.313Z,61.83
2023-04-04T01:28:00.532Z,67.16
2023-04-04T01:30:34.071Z,70.13
2023-04-04T01:33:26.642Z,65.45
2023-04-04T01:36:09.444Z,54.18
2023-04-04T01:38:57.708Z,52.13
2023-04-04T01:41:28.375Z,52.52
2023-04-04T01:44:00.735Z,53.14
2023-04-04T01:46:29.592Z,54.20
2023-04-04T01:48:58.285Z,54.93
2023-04-04T01:51:31.238Z,55.64
2023-04-04T01:53:59.447Z,56.17
2023-04-04T01:56:27.622Z,57.04
2023-04-04T01:58:55.646Z,56.76
2023-04-04T02:01:24.321Z,58.42
2023-04-04T02:03:53.312Z,58.06
2023-04-04T02:06:21.659Z,58.13
2023-04-04T02:08:49.929Z,58.32
2023-04-04T02:11:18.686Z,58.48
2023-04-04T02:13:46.983Z,58.65
2023-04-04T02:16:16.776Z,58.82
2023-04-04T02:18:45.127Z,59.50
2023-04-04T02:21:13.149Z,59.79
2023-04-04T02:23:41.525Z,59.97
2023-04-04T02:26:09.587Z,60.37
2023-04-04T02:28:38.593Z,60.69
2023-04-04T02:31:07.426Z,60.98
2023-04-04T02:33:35.792Z,61.13
2023-04-04T02:36:06.249Z,61.47
2023-04-04T02:38:34.864Z,61.56
2023-04-04T02:41:05.152Z,61.77
2023-04-04T02:43:33.153Z,62.01
2023-04-04T02:46:14.384Z,63.11
2023-04-04T02:48:50.696Z,70.78
2023-04-04T02:51:18.977Z,73.39
2023-04-04T02:53:47.268Z,71.88
2023-04-04T02:56:25.174Z,70.33
2023-04-04T02:58:53.228Z,66.51
2023-04-04T03:01:21.822Z,63.20
2023-04-04T03:03:50.090Z,57.22
2023-04-04T03:06:18.765Z,51.11
2023-04-04T03:08:49.038Z,49.54
2023-04-04T03:11:19.020Z,49.43
2023-04-04T03:13:47.896Z,50.09
2023-04-04T03:16:18.108Z,50.71
2023-04-04T03:18:50.209Z,51.16
2023-04-04T03:21:20.093Z,52.06
2023-04-04T03:23:48.164Z,52.79
2023-04-04T03:26:16.153Z,54.06
2023-04-04T03:28:44.412Z,54.29
2023-04-04T03:31:13.178Z,54.87
2023-04-04T03:33:43.162Z,55.56
2023-04-04T03:36:14.297Z,57.09
2023-04-04T03:38:42.751Z,57.39
2023-04-04T03:41:11.451Z,57.84
2023-04-04T03:43:39.505Z,58.29
2023-04-04T03:46:07.857Z,58.68
2023-04-04T03:48:36.372Z,58.87
2023-04-04T03:51:06.995Z,59.44
2023-04-04T03:53:36.789Z,59.89
2023-04-04T03:56:05.088Z,60.46
2023-04-04T03:58:35.900Z,60.69
2023-04-04T04:01:04.071Z,61.03
2023-04-04T04:03:32.373Z,61.60
2023-04-04T04:06:01.041Z,62.05
2023-04-04T04:08:29.252Z,64.50
2023-04-04T04:10:57.720Z,71.45
2023-04-04T04:13:25.662Z,72.61
2023-04-04T04:15:55.110Z,71.64
2023-04-04T04:18:23.645Z,68.65
2023-04-04T04:20:58.121Z,64.89
2023-04-04T04:23:26.553Z,59.21
2023-04-04T04:25:54.531Z,53.22
2023-04-04T04:28:34.101Z,51.33
2023-04-04T04:31:08.600Z,51.19
2023-04-04T04:33:42.361Z,52.15
2023-04-04T04:36:11.636Z,52.72
2023-04-04T04:38:49.495Z,53.76
2023-04-04T04:41:17.680Z,54.07
2023-04-04T04:43:48.595Z,54.78
2023-04-04T04:46:17.713Z,55.35
2023-04-04T04:48:47.194Z,56.48
2023-04-04T04:51:15.508Z,58.33
2023-04-04T04:53:47.677Z,60.15
2023-04-04T04:56:16.033Z,59.47
2023-04-04T04:58:45.764Z,59.85
2023-04-04T05:01:17.999Z,60.20
2023-04-04T05:03:46.332Z,62.90
2023-04-04T05:06:16.491Z,69.56
2023-04-04T05:08:45.312Z,71.30
2023-04-04T05:11:24.866Z,67.25
2023-04-04T05:13:53.643Z,64.08
2023-04-04T05:16:22.236Z,56.66
2023-04-04T05:18:50.980Z,50.02
2023-04-04T05:21:19.841Z,49.54
2023-04-04T05:23:49.930Z,50.10
2023-04-04T05:26:18.399Z,52.21
2023-04-04T05:28:49.217Z,55.04
2023-04-04T05:31:17.573Z,54.59
2023-04-04T05:33:46.303Z,55.09
2023-04-04T05:36:23.709Z,57.67
2023-04-04T05:38:56.235Z,58.15
2023-04-04T05:41:25.847Z,58.50
2023-04-04T05:43:54.214Z,59.97
2023-04-04T05:46:24.333Z,60.80
2023-04-04T05:48:53.649Z,60.60
2023-04-04T05:51:22.016Z,62.93
2023-04-04T05:53:55.621Z,67.74
2023-04-04T05:56:27.934Z,67.37
2023-04-04T05:58:57.817Z,61.52
2023-04-04T06:01:26.892Z,50.19
2023-04-04T06:03:56.916Z,48.48
2023-04-04T06:06:27.883Z,49.96
2023-04-04T06:08:56.054Z,51.73
2023-04-04T06:11:24.199Z,52.66
2023-04-04T06:13:55.363Z,54.56
2023-04-04T06:16:25.092Z,54.92
2023-04-04T06:18:53.217Z,55.20
2023-04-04T06:21:21.287Z,56.18
2023-04-04T06:23:49.564Z,57.44
2023-04-04T06:26:17.969Z,58.33
2023-04-04T06:28:49.175Z,60.14
2023-04-04T06:31:19.857Z,62.07
2023-04-04T06:33:49.319Z,66.18
2023-04-04T06:36:18.767Z,61.31
2023-04-04T06:38:48.001Z,53.59
2023-04-04T06:41:21.622Z,51.50
2023-04-04T06:43:51.368Z,52.71
2023-04-04T06:46:19.856Z,54.13
2023-04-04T06:48:49.008Z,54.16
2023-04-04T06:51:18.723Z,56.67
2023-04-04T06:53:47.918Z,57.90
2023-04-04T07:03:54.253Z,59.97
2023-04-04T07:06:25.983Z,59.94
2023-04-04T07:08:54.211Z,59.07
2023-04-04T07:11:24.314Z,59.65
2023-04-04T07:13:52.593Z,60.52
2023-04-04T07:16:20.664Z,60.90
2023-04-04T07:18:48.907Z,60.63
2023-04-04T07:21:17.654Z,60.36
2023-04-04T07:23:45.659Z,60.25
2023-04-04T07:26:13.629Z,60.50
2023-04-04T07:28:41.599Z,60.38
2023-04-04T07:31:09.574Z,60.06
2023-04-04T07:33:37.880Z,60.16
2023-04-04T07:36:05.897Z,59.92
2023-04-04T07:38:33.986Z,60.44
2023-04-04T07:41:04.067Z,60.65
2023-04-04T07:43:32.288Z,60.21
2023-04-04T07:46:00.480Z,60.31
2023-04-04T07:48:28.525Z,60.41
2023-04-04T07:50:56.487Z,59.79
2023-04-04T07:53:24.483Z,59.50
2023-04-04T07:55:52.540Z,59.86
2023-04-04T07:58:22.448Z,59.91
2023-04-04T08:00:50.425Z,59.49
2023-04-04T08:03:20.101Z,59.38
2023-04-04T08:05:48.339Z,59.81
2023-04-04T08:08:16.666Z,59.81
2023-04-04T08:10:46.101Z,59.00
2023-04-04T08:13:14.038Z,59.69
2023-04-04T08:15:42.232Z,59.23
2023-04-04T08:18:10.277Z,58.82
2023-04-04T08:20:38.853Z,58.34
2023-04-04T08:23:07.141Z,58.71
2023-04-04T08:25:35.363Z,58.36
2023-04-04T08:28:05.679Z,58.02
2023-04-04T08:30:33.936Z,57.46
2023-04-04T08:33:03.903Z,58.39
2023-04-04T08:35:33.704Z,57.76
2023-04-04T08:38:06.272Z,56.53
2023-04-04T08:40:34.908Z,56.47
2023-04-04T08:43:05.975Z,55.52
2023-04-04T08:45:35.065Z,55.51
2023-04-04T08:48:05.193Z,54.45
2023-04-04T08:50:36.259Z,52.97
2023-04-04T08:53:06.377Z,54.84
2023-04-04T08:55:34.336Z,54.05
2023-04-04T08:58:02.273Z,54.06
2023-04-04T09:00:31.019Z,53.85
2023-04-04T09:03:23.079Z,55.35
2023-04-04T09:05:51.784Z,53.61
2023-04-04T09:08:20.657Z,51.74
2023-04-04T09:10:49.896Z,50.22
2023-04-04T09:13:18.543Z,49.16
2023-04-04T09:15:52.677Z,49.64
2023-04-04T09:18:20.835Z,50.30
2023-04-04T09:20:49.722Z,48.33
2023-04-04T09:23:24.028Z,49.00
2023-04-04T09:28:27.341Z,49.42
2023-04-04T09:30:55.316Z,49.52
2023-04-04T09:33:27.089Z,47.78
2023-04-04T09:35:58.907Z,46.48
2023-04-04T09:38:29.979Z,46.33
2023-04-04T09:40:58.269Z,47.50
2023-04-04T09:43:31.212Z,47.85
2023-04-04T09:46:00.673Z,48.52
2023-04-04T09:48:32.624Z,47.08
2023-04-04T09:51:03.942Z,44.79
2023-04-04T09:53:36.466Z,45.74
2023-04-04T09:56:04.872Z,46.12
2023-04-04T09:58:36.531Z,47.03
2023-04-04T10:01:12.220Z,47.72
2023-04-04T10:03:40.407Z,47.14
2023-04-04T10:06:12.573Z,47.77
2023-04-04T10:08:44.210Z,48.59
2023-04-04T10:11:12.715Z,49.45
2023-04-04T10:13:42.137Z,50.02
2023-04-04T10:16:13.758Z,49.62
2023-04-04T10:18:41.911Z,48.09
2023-04-04T10:23:43.362Z,48.51
2023-04-04T10:26:13.306Z,47.18
2023-04-04T10:28:42.719Z,47.81
2023-04-04T10:31:23.799Z,48.03
2023-04-04T10:34:20.647Z,48.25
2023-04-04T10:36:57.493Z,47.62
2023-04-04T10:39:45.236Z,46.37
2023-04-04T10:42:16.878Z,44.92
2023-04-04T10:44:46.232Z,45.48
2023-04-04T10:47:22.018Z,45.18
2023-04-04T10:49:52.022Z,45.35
2023-04-04T10:52:23.903Z,45.08
2023-04-04T10:54:58.906Z,43.23
2023-04-04T10:57:28.590Z,43.36
2023-04-04T11:00:10.091Z,43.70
2023-04-04T11:02:58.619Z,42.60
2023-04-04T11:05:42.329Z,42.08
2023-04-04T11:08:14.309Z,42.09
2023-04-04T11:10:44.787Z,43.13
2023-04-04T11:13:29.547Z,42.79
2023-04-04T11:16:08.040Z,43.94
2023-04-04T11:18:39.385Z,42.35
2023-04-04T11:21:14.194Z,41.99
2023-04-04T11:23:48.684Z,42.61
2023-04-04T11:26:36.018Z,41.93
2023-04-04T11:29:08.236Z,41.99
2023-04-04T11:31:43.379Z,41.61
2023-04-04T11:34:16.169Z,43.26
2023-04-04T11:36:45.558Z,42.50
2023-04-04T11:39:26.390Z,43.44
2023-04-04T11:41:57.718Z,41.90
2023-04-04T11:44:30.761Z,43.25
2023-04-04T11:47:04.507Z,43.06
2023-04-04T11:49:38.760Z,41.63
2023-04-04T11:52:16.498Z,40.88
2023-04-04T11:54:46.967Z,39.83
2023-04-04T11:57:19.840Z,41.02
2023-04-04T11:59:49.806Z,41.48
2023-04-04T12:02:32.238Z,41.34
2023-04-04T12:05:01.199Z,40.03
2023-04-04T12:07:29.947Z,39.96
2023-04-04T12:09:58.936Z,41.14
2023-04-04T12:12:28.983Z,39.96
2023-04-04T12:15:10.422Z,40.33
2023-04-04T12:17:46.658Z,40.50
2023-04-04T12:20:17.740Z,40.36
2023-04-04T12:22:50.013Z,40.70
2023-04-04T12:25:24.584Z,40.19
2023-04-04T12:27:53.316Z,40.23
2023-04-04T12:30:22.006Z,40.93
2023-04-04T12:32:51.087Z,40.98
2023-04-04T12:35:19.369Z,40.89
2023-04-04T12:38:11.193Z,41.42
2023-04-04T12:40:39.504Z,41.68
2023-04-04T12:43:09.163Z,42.30
2023-04-04T12:45:39.533Z,42.63
2023-04-04T12:48:15.599Z,42.71
2023-04-04T12:51:00.993Z,42.54
2023-04-04T12:53:30.563Z,41.56
2023-04-04T12:56:05.585Z,42.14
2023-04-04T13:01:22.018Z,42.00
2023-04-04T13:03:50.395Z,42.08
2023-04-04T13:06:19.916Z,41.33
2023-04-04T13:08:54.290Z,41.10
2023-04-04T13:11:22.891Z,40.48
2023-04-04T13:14:04.372Z,41.51
2023-04-04T13:16:37.223Z,41.98
2023-04-04T13:19:05.495Z,42.30
2023-04-04T13:21:33.848Z,42.71
2023-04-04T13:24:03.753Z,42.62
2023-04-04T13:26:32.007Z,43.22
2023-04-04T13:29:00.489Z,43.37
2023-04-04T13:31:29.165Z,43.56
2023-04-04T13:33:57.175Z,43.63
2023-04-04T13:36:28.653Z,44.14
2023-04-04T13:38:57.598Z,43.80
2023-04-04T13:41:26.057Z,43.84
2023-04-04T13:43:54.037Z,43.64
2023-04-04T13:46:22.071Z,43.91
2023-04-04T13:48:52.540Z,44.03
2023-04-04T13:51:20.596Z,44.00
2023-04-04T13:53:49.182Z,44.22
2023-04-04T13:56:18.611Z,44.19
2023-04-04T13:58:50.241Z,44.20
2023-04-04T14:01:18.498Z,44.44
2023-04-04T14:03:47.980Z,44.39
2023-04-04T14:06:16.464Z,44.49
2023-04-04T14:08:45.714Z,44.78
2023-04-04T14:11:15.215Z,44.96
2023-04-04T14:13:43.288Z,44.53
2023-04-04T14:16:11.361Z,44.55
2023-04-04T14:18:39.641Z,44.47
2023-04-04T14:21:07.692Z,44.52
2023-04-04T14:23:35.858Z,44.70
2023-04-04T14:26:04.677Z,45.18
2023-04-04T14:28:33.029Z,45.61
2023-04-04T14:31:01.743Z,45.57
2023-04-04T14:33:29.785Z,45.25
2023-04-04T14:35:57.769Z,45.56
2023-04-04T14:38:25.740Z,45.45
2023-04-04T14:40:53.789Z,45.38
2023-04-04T14:43:21.903Z,44.61
2023-04-04T14:45:49.859Z,44.76
2023-04-04T14:48:17.800Z,44.43
2023-04-04T14:50:47.106Z,44.26
2023-04-04T14:53:15.101Z,44.51
2023-04-04T14:55:43.177Z,44.48
2023-04-04T14:58:11.126Z,44.52
2023-04-04T15:00:39.696Z,45.04
2023-04-04T15:03:08.579Z,44.70
2023-04-04T15:05:36.792Z,44.85
2023-04-04T15:08:04.954Z,45.11
2023-04-04T15:10:33.357Z,45.06
2023-04-04T15:13:01.480Z,45.23
2023-04-04T15:15:29.460Z,45.43
2023-04-04T15:17:57.445Z,45.60
2023-04-04T15:20:25.945Z,46.00
2023-04-04T15:22:54.705Z,45.62
2023-04-04T15:25:22.823Z,45.25
2023-04-04T15:27:51.036Z,44.99
2023-04-04T15:30:19.021Z,45.35
2023-04-04T15:32:47.035Z,45.32
2023-04-04T15:35:17.649Z,44.84
2023-04-04T15:37:46.329Z,44.66
2023-04-04T15:40:16.059Z,44.91
2023-04-04T15:42:45.092Z,44.41
2023-04-04T15:45:14.690Z,44.64
2023-04-04T15:47:43.965Z,44.79
2023-04-04T15:50:12.375Z,44.93
2023-04-04T15:52:40.553Z,45.19
2023-04-04T15:55:14.574Z,45.35
2023-04-04T15:57:44.838Z,45.30
2023-04-04T16:00:14.634Z,45.29
2023-04-04T16:02:43.257Z,45.39
2023-04-04T16:05:11.663Z,45.12
2023-04-04T16:07:39.868Z,45.33
2023-04-04T16:10:09.122Z,45.66
2023-04-04T16:12:37.222Z,45.68
2023-04-04T16:15:07.372Z,45.55
2023-04-04T16:17:35.515Z,45.72
2023-04-04T16:20:05.195Z,45.88
2023-04-04T16:22:33.581Z,46.07
2023-04-04T16:25:01.557Z,46.18
2023-04-04T16:27:29.870Z,46.20
2023-04-04T16:29:57.829Z,46.41
2023-04-04T16:32:25.896Z,46.46
2023-04-04T16:34:54.345Z,46.55
2023-04-04T16:37:23.596Z,46.53
2023-04-04T16:39:52.162Z,46.84
2023-04-04T16:42:20.113Z,46.83
2023-04-04T16:44:48.625Z,47.06
2023-04-04T16:47:16.642Z,46.91
2023-04-04T16:49:44.978Z,46.92
2023-04-04T16:52:14.930Z,47.09
2023-04-04T16:54:43.130Z,47.07
2023-04-04T16:57:11.910Z,47.19
2023-04-04T16:59:40.202Z,47.20
2023-04-04T17:02:08.657Z,47.11
2023-04-04T17:04:41.086Z,47.45
2023-04-04T17:07:10.589Z,47.45
2023-04-04T17:09:38.806Z,47.35
2023-04-04T17:12:06.885Z,47.57
2023-04-04T17:14:35.878Z,47.58
2023-04-04T17:17:05.678Z,47.66
2023-04-04T17:19:35.405Z,47.77
2023-04-04T17:22:03.704Z,47.86
2023-04-04T17:24:32.089Z,47.99
2023-04-04T17:27:02.100Z,47.92
2023-04-04T17:29:30.401Z,47.83
2023-04-04T17:31:58.465Z,47.99
2023-04-04T17:34:26.987Z,47.85
2023-04-04T17:36:55.491Z,48.14
2023-04-04T17:39:24.115Z,47.97
2023-04-04T17:41:52.662Z,47.91
2023-04-04T17:44:21.838Z,48.06
2023-04-04T17:46:50.118Z,48.09
2023-04-04T17:49:20.807Z,48.26
2023-04-04T17:51:50.232Z,48.34
2023-04-04T17:54:18.244Z,48.27
2023-04-04T17:56:47.400Z,48.32
2023-04-04T17:59:17.599Z,48.38
2023-04-04T18:01:47.251Z,48.30
2023-04-04T18:04:15.723Z,48.28
2023-04-04T18:06:43.699Z,48.48
2023-04-04T18:09:11.763Z,48.43
2023-04-04T18:11:40.188Z,48.51
2023-04-04T18:14:08.885Z,48.61
2023-04-04T18:16:40.351Z,48.59
2023-04-04T18:19:10.306Z,48.58
2023-04-04T18:21:39.239Z,48.63
2023-04-04T18:24:11.312Z,48.63
2023-04-04T18:26:39.733Z,48.78
2023-04-04T18:29:07.803Z,48.80
2023-04-04T18:31:36.109Z,48.94
2023-04-04T18:34:04.175Z,49.29
2023-04-04T18:36:32.548Z,49.53
2023-04-04T18:39:01.312Z,49.51
2023-04-04T18:41:29.486Z,49.96
2023-04-04T18:43:57.765Z,50.14
2023-04-04T18:46:25.958Z,50.07
2023-04-04T18:48:55.796Z,50.20
2023-04-04T18:51:24.003Z,50.22
2023-04-04T18:53:52.064Z,50.21
2023-04-04T18:56:20.190Z,50.37
2023-04-04T18:58:49.105Z,50.35
2023-04-04T19:01:17.608Z,50.30
2023-04-04T19:03:51.727Z,50.33
2023-04-04T19:06:24.403Z,50.51
2023-04-04T19:08:57.745Z,50.62
2023-04-04T19:11:26.023Z,50.92
2023-04-04T19:13:54.387Z,51.19
2023-04-04T19:16:24.205Z,51.32
2023-04-04T19:18:52.264Z,51.49
2023-04-04T19:21:20.184Z,51.63
2023-04-04T19:23:48.250Z,51.41
2023-04-04T19:26:18.138Z,51.36
2023-04-04T19:28:46.597Z,51.28
2023-04-04T19:31:21.777Z,51.41
2023-04-04T19:33:51.457Z,51.42
2023-04-04T19:36:19.823Z,51.63
2023-04-04T19:38:49.512Z,51.80
2023-04-04T19:41:23.394Z,51.87
2023-04-04T19:43:51.741Z,51.91
2023-04-04T19:46:29.448Z,52.05
2023-04-04T19:49:00.346Z,52.22
2023-04-04T19:51:28.444Z,52.15
2023-04-04T19:53:59.089Z,52.12
2023-04-04T19:56:28.411Z,52.30
2023-04-04T19:59:03.562Z,52.53
2023-04-04T20:01:35.011Z,52.79
2023-04-04T20:04:12.373Z,52.71
2023-04-04T20:06:42.342Z,52.66
2023-04-04T20:09:31.426Z,53.10
2023-04-04T20:11:59.308Z,53.34
2023-04-04T20:14:27.251Z,53.31
2023-04-04T20:16:55.615Z,53.35
2023-04-04T20:19:27.794Z,53.38
2023-04-04T20:21:56.134Z,53.24
2023-04-04T20:24:24.369Z,53.45
2023-04-04T20:26:55.168Z,53.76
2023-04-04T20:29:31.904Z,53.68
2023-04-04T20:32:05.952Z,53.82
2023-04-04T20:34:42.399Z,53.88
2023-04-04T20:37:13.790Z,54.09
2023-04-04T20:39:56.000Z,53.77
2023-04-04T20:42:34.203Z,54.03
2023-04-04T20:45:28.245Z,54.29
2023-04-04T20:48:06.834Z,54.46
2023-04-04T20:50:35.511Z,54.60
2023-04-04T20:53:05.089Z,54.83
2023-04-04T20:55:35.295Z,55.01
2023-04-04T20:58:20.164Z,55.13
2023-04-04T21:00:48.153Z,55.36
2023-04-04T21:03:25.423Z,55.35
2023-04-04T21:05:58.671Z,55.45
2023-04-04T21:08:29.754Z,55.57
2023-04-04T21:10:58.181Z,55.70
2023-04-04T21:13:37.992Z,55.77
2023-04-04T21:16:11.844Z,55.88
2023-04-04T21:18:42.051Z,55.97
2023-04-04T21:21:20.179Z,56.04
2023-04-04T21:23:53.870Z,56.18
2023-04-04T21:26:33.658Z,56.36
2023-04-04T21:29:03.430Z,56.41
2023-04-04T21:31:52.789Z,56.60
2023-04-04T21:34:22.980Z,56.60
2023-04-04T21:36:55.961Z,56.48
2023-04-04T21:39:26.207Z,56.53
2023-04-04T21:41:58.730Z,56.82
2023-04-04T21:44:27.651Z,57.01
2023-04-04T21:46:56.290Z,57.30
2023-04-04T21:49:25.506Z,57.27
2023-04-04T21:51:53.852Z,57.51
2023-04-04T21:54:21.864Z,57.58
2023-04-04T21:56:50.257Z,57.70
2023-04-04T21:59:18.478Z,57.84
2023-04-04T22:01:46.608Z,57.95
2023-04-04T22:04:14.829Z,58.11
2023-04-04T22:06:43.047Z,58.11
2023-04-04T22:09:12.029Z,58.58
2023-04-04T22:11:42.963Z,58.54
2023-04-04T22:14:17.652Z,58.70
2023-04-04T22:16:46.372Z,59.01
2023-04-04T22:19:14.579Z,59.26
2023-04-04T22:21:48.496Z,59.25
2023-04-04T22:24:18.745Z,59.28
2023-04-04T22:26:47.053Z,59.47
2023-04-04T22:29:15.243Z,59.68
2023-04-04T22:31:43.394Z,59.74
2023-04-04T22:34:14.789Z,59.78
2023-04-04T22:36:44.173Z,60.24
2023-04-04T22:39:16.331Z,60.31
2023-04-04T22:41:44.730Z,60.25
2023-04-04T22:44:12.670Z,60.13
2023-04-04T22:46:41.302Z,60.15
2023-04-04T22:49:09.327Z,60.28
2023-04-04T22:51:45.648Z,60.55
2023-04-04T22:54:16.887Z,60.76
2023-04-04T22:56:45.655Z,60.83
2023-04-04T22:59:14.428Z,60.91
2023-04-04T23:01:42.777Z,60.98
2023-04-04T23:04:11.524Z,60.85
2023-04-04T23:06:39.751Z,60.83
2023-04-04T23:09:08.661Z,60.77
2023-04-04T23:11:40.828Z,60.80
2023-04-04T23:14:09.530Z,60.95
2023-04-04T23:16:38.429Z,61.09
2023-04-04T23:19:06.870Z,61.27
2023-04-04T23:21:36.910Z,61.24
2023-04-04T23:24:07.058Z,61.47
2023-04-04T23:26:35.067Z,61.63
2023-04-04T23:29:03.231Z,61.41
2023-04-04T23:31:31.591Z,61.62
2023-04-04T23:34:00.208Z,61.55
2023-04-04T23:36:28.226Z,61.58
2023-04-04T23:38:56.870Z,61.82
2023-04-04T23:41:25.132Z,62.84
2023-04-04T23:43:53.743Z,70.64
2023-04-04T23:46:22.454Z,72.82
2023-04-04T23:48:50.409Z,71.71
2023-04-04T23:51:18.752Z,70.88
2023-04-04T23:53:46.720Z,68.61
2023-04-04T23:56:14.690Z,65.17
2023-04-04T23:58:42.653Z,60.15
